sensor_id;sensor_type;location;lat;lon;timestamp;P1;durP1;ratioP1;P2;durP2;ratioP2
39502;SDS011;26970;49.900;10.774;2024-03-07T00:00:41;11.40;;;6.45;;
39502;SDS011;26970;49.900;10.774;2024-03-07T00:03:07;13.10;;;6.30;;
39502;SDS011;26970;49.900;10.774;2024-03-07T00:05:33;14.98;;;7.72;;
39502;SDS011;26970;49.900;10.774;2024-03-07T00:07:59;11.25;;;6.43;;
39502;SDS011;26970;49.900;10.774;2024-03-07T00:10:24;12.02;;;6.03;;
39502;SDS011;26970;49.900;10.774;2024-03-07T00:12:50;14.65;;;8.07;;
39502;SDS011;26970;49.900;10.774;2024-03-07T00:15:16;12.95;;;6.93;;
39502;SDS011;26970;49.900;10.774;2024-03-07T00:17:42;12.13;;;7.57;;
39502;SDS011;26970;49.900;10.774;2024-03-07T00:20:08;13.60;;;8.05;;
39502;SDS011;26970;49.900;10.774;2024-03-07T00:22:35;11.48;;;7.10;;
39502;SDS011;26970;49.900;10.774;2024-03-07T00:25:01;13.40;;;7.00;;
39502;SDS011;26970;49.900;10.774;2024-03-07T00:27:27;15.18;;;7.95;;
39502;SDS011;26970;49.900;10.774;2024-03-07T00:29:52;13.68;;;7.30;;
39502;SDS011;26970;49.900;10.774;2024-03-07T00:32:21;18.13;;;9.43;;
39502;SDS011;26970;49.900;10.774;2024-03-07T00:34:48;17.25;;;9.48;;
39502;SDS011;26970;49.900;10.774;2024-03-07T00:37:15;19.17;;;10.82;;
39502;SDS011;26970;49.900;10.774;2024-03-07T00:39:41;17.70;;;9.32;;
39502;SDS011;26970;49.900;10.774;2024-03-07T00:42:07;17.95;;;10.00;;
39502;SDS011;26970;49.900;10.774;2024-03-07T00:44:33;12.88;;;8.68;;
39502;SDS011;26970;49.900;10.774;2024-03-07T00:46:59;15.82;;;8.90;;
39502;SDS011;26970;49.900;10.774;2024-03-07T00:49:25;20.55;;;10.70;;
39502;SDS011;26970;49.900;10.774;2024-03-07T00:51:51;19.20;;;10.20;;
39502;SDS011;26970;49.900;10.774;2024-03-07T00:54:16;14.45;;;7.15;;
39502;SDS011;26970;49.900;10.774;2024-03-07T00:56:42;21.08;;;10.93;;
39502;SDS011;26970;49.900;10.774;2024-03-07T00:59:07;19.33;;;10.80;;
39502;SDS011;26970;49.900;10.774;2024-03-07T01:01:33;19.63;;;9.77;;
39502;SDS011;26970;49.900;10.774;2024-03-07T01:04:01;13.60;;;8.68;;
39502;SDS011;26970;49.900;10.774;2024-03-07T01:06:27;17.27;;;9.68;;
39502;SDS011;26970;49.900;10.774;2024-03-07T01:08:53;16.13;;;10.38;;
39502;SDS011;26970;49.900;10.774;2024-03-07T01:11:18;17.42;;;9.55;;
39502;SDS011;26970;49.900;10.774;2024-03-07T01:13:44;24.20;;;10.68;;
39502;SDS011;26970;49.900;10.774;2024-03-07T01:16:10;23.13;;;11.70;;
39502;SDS011;26970;49.900;10.774;2024-03-07T01:18:37;21.60;;;12.38;;
39502;SDS011;26970;49.900;10.774;2024-03-07T01:21:03;24.58;;;12.30;;
39502;SDS011;26970;49.900;10.774;2024-03-07T01:23:30;21.13;;;11.68;;
39502;SDS011;26970;49.900;10.774;2024-03-07T01:25:57;21.20;;;12.10;;
39502;SDS011;26970;49.900;10.774;2024-03-07T01:28:23;18.80;;;11.05;;
39502;SDS011;26970;49.900;10.774;2024-03-07T01:30:50;21.88;;;10.98;;
39502;SDS011;26970;49.900;10.774;2024-03-07T01:33:17;18.35;;;10.65;;
39502;SDS011;26970;49.900;10.774;2024-03-07T01:35:44;20.80;;;11.65;;
39502;SDS011;26970;49.900;10.774;2024-03-07T01:38:10;17.25;;;9.65;;
39502;SDS011;26970;49.900;10.774;2024-03-07T01:40:36;19.15;;;9.80;;
39502;SDS011;26970;49.900;10.774;2024-03-07T01:43:02;20.88;;;11.05;;
39502;SDS011;26970;49.900;10.774;2024-03-07T01:45:28;19.05;;;11.02;;
39502;SDS011;26970;49.900;10.774;2024-03-07T01:47:53;17.35;;;10.27;;
39502;SDS011;26970;49.900;10.774;2024-03-07T01:50:21;16.90;;;9.13;;
39502;SDS011;26970;49.900;10.774;2024-03-07T01:52:47;18.30;;;10.30;;
39502;SDS011;26970;49.900;10.774;2024-03-07T01:55:16;15.30;;;8.60;;
39502;SDS011;26970;49.900;10.774;2024-03-07T01:57:43;15.68;;;8.32;;
39502;SDS011;26970;49.900;10.774;2024-03-07T02:00:10;16.05;;;8.82;;
39502;SDS011;26970;49.900;10.774;2024-03-07T02:02:36;18.40;;;8.50;;
39502;SDS011;26970;49.900;10.774;2024-03-07T02:05:02;16.42;;;9.55;;
39502;SDS011;26970;49.900;10.774;2024-03-07T02:07:28;16.83;;;8.98;;
39502;SDS011;26970;49.900;10.774;2024-03-07T02:10:00;15.63;;;9.40;;
39502;SDS011;26970;49.900;10.774;2024-03-07T02:12:30;23.15;;;9.05;;
39502;SDS011;26970;49.900;10.774;2024-03-07T02:14:56;17.88;;;9.52;;
39502;SDS011;26970;49.900;10.774;2024-03-07T02:17:25;18.23;;;9.57;;
39502;SDS011;26970;49.900;10.774;2024-03-07T02:19:51;14.27;;;8.68;;
39502;SDS011;26970;49.900;10.774;2024-03-07T02:22:17;17.92;;;9.13;;
39502;SDS011;26970;49.900;10.774;2024-03-07T02:24:43;15.68;;;8.90;;
39502;SDS011;26970;49.900;10.774;2024-03-07T02:27:10;18.75;;;9.05;;
39502;SDS011;26970;49.900;10.774;2024-03-07T02:29:35;16.65;;;9.65;;
39502;SDS011;26970;49.900;10.774;2024-03-07T02:32:01;17.20;;;8.88;;
39502;SDS011;26970;49.900;10.774;2024-03-07T02:34:27;20.27;;;10.63;;
39502;SDS011;26970;49.900;10.774;2024-03-07T02:36:53;16.65;;;9.13;;
39502;SDS011;26970;49.900;10.774;2024-03-07T02:39:19;19.42;;;9.63;;
39502;SDS011;26970;49.900;10.774;2024-03-07T02:41:45;21.48;;;9.93;;
39502;SDS011;26970;49.900;10.774;2024-03-07T02:44:12;16.73;;;8.98;;
39502;SDS011;26970;49.900;10.774;2024-03-07T02:46:39;19.33;;;11.18;;
39502;SDS011;26970;49.900;10.774;2024-03-07T02:49:05;14.98;;;8.38;;
39502;SDS011;26970;49.900;10.774;2024-03-07T02:51:30;19.35;;;9.60;;
39502;SDS011;26970;49.900;10.774;2024-03-07T02:53:56;19.20;;;9.18;;
39502;SDS011;26970;49.900;10.774;2024-03-07T02:56:22;20.15;;;10.25;;
39502;SDS011;26970;49.900;10.774;2024-03-07T02:58:48;18.63;;;10.27;;
39502;SDS011;26970;49.900;10.774;2024-03-07T03:01:14;18.80;;;9.23;;
39502;SDS011;26970;49.900;10.774;2024-03-07T03:03:39;16.58;;;7.55;;
39502;SDS011;26970;49.900;10.774;2024-03-07T03:06:07;15.68;;;8.65;;
39502;SDS011;26970;49.900;10.774;2024-03-07T03:08:33;18.98;;;9.43;;
39502;SDS011;26970;49.900;10.774;2024-03-07T03:10:59;15.13;;;8.60;;
39502;SDS011;26970;49.900;10.774;2024-03-07T03:13:25;22.20;;;9.77;;
39502;SDS011;26970;49.900;10.774;2024-03-07T03:15:54;18.00;;;8.73;;
39502;SDS011;26970;49.900;10.774;2024-03-07T03:18:22;18.02;;;9.68;;
39502;SDS011;26970;49.900;10.774;2024-03-07T03:20:49;17.63;;;8.23;;
39502;SDS011;26970;49.900;10.774;2024-03-07T03:23:15;18.17;;;9.43;;
39502;SDS011;26970;49.900;10.774;2024-03-07T03:25:41;16.98;;;9.65;;
39502;SDS011;26970;49.900;10.774;2024-03-07T03:28:07;15.35;;;8.40;;
39502;SDS011;26970;49.900;10.774;2024-03-07T03:30:38;18.05;;;9.18;;
39502;SDS011;26970;49.900;10.774;2024-03-07T03:33:04;14.27;;;8.50;;
39502;SDS011;26970;49.900;10.774;2024-03-07T03:35:33;14.50;;;7.97;;
39502;SDS011;26970;49.900;10.774;2024-03-07T03:37:59;18.17;;;8.80;;
39502;SDS011;26970;49.900;10.774;2024-03-07T03:40:25;13.52;;;8.35;;
39502;SDS011;26970;49.900;10.774;2024-03-07T03:42:51;16.00;;;8.13;;
39502;SDS011;26970;49.900;10.774;2024-03-07T03:45:17;15.00;;;8.48;;
39502;SDS011;26970;49.900;10.774;2024-03-07T03:47:43;16.33;;;8.70;;
39502;SDS011;26970;49.900;10.774;2024-03-07T03:50:10;16.67;;;9.15;;
39502;SDS011;26970;49.900;10.774;2024-03-07T03:52:37;17.50;;;8.93;;
39502;SDS011;26970;49.900;10.774;2024-03-07T03:55:04;14.02;;;7.38;;
39502;SDS011;26970;49.900;10.774;2024-03-07T03:57:30;16.60;;;8.82;;
39502;SDS011;26970;49.900;10.774;2024-03-07T03:59:57;13.38;;;7.15;;
39502;SDS011;26970;49.900;10.774;2024-03-07T04:02:23;14.02;;;8.48;;
39502;SDS011;26970;49.900;10.774;2024-03-07T04:04:49;18.02;;;9.00;;
39502;SDS011;26970;49.900;10.774;2024-03-07T04:07:16;17.45;;;8.68;;
39502;SDS011;26970;49.900;10.774;2024-03-07T04:09:42;14.13;;;7.72;;
39502;SDS011;26970;49.900;10.774;2024-03-07T04:12:08;20.30;;;8.55;;
39502;SDS011;26970;49.900;10.774;2024-03-07T04:14:37;14.15;;;7.55;;
39502;SDS011;26970;49.900;10.774;2024-03-07T04:17:06;12.55;;;7.50;;
39502;SDS011;26970;49.900;10.774;2024-03-07T04:19:36;17.38;;;8.65;;
39502;SDS011;26970;49.900;10.774;2024-03-07T04:22:03;17.33;;;8.75;;
39502;SDS011;26970;49.900;10.774;2024-03-07T04:24:29;18.27;;;8.30;;
39502;SDS011;26970;49.900;10.774;2024-03-07T04:26:59;18.63;;;8.63;;
39502;SDS011;26970;49.900;10.774;2024-03-07T04:29:25;14.82;;;7.75;;
39502;SDS011;26970;49.900;10.774;2024-03-07T04:31:51;17.42;;;8.45;;
39502;SDS011;26970;49.900;10.774;2024-03-07T04:34:17;17.80;;;7.65;;
39502;SDS011;26970;49.900;10.774;2024-03-07T04:36:43;14.38;;;7.20;;
39502;SDS011;26970;49.900;10.774;2024-03-07T04:39:09;14.23;;;7.53;;
39502;SDS011;26970;49.900;10.774;2024-03-07T04:41:47;13.05;;;6.53;;
39502;SDS011;26970;49.900;10.774;2024-03-07T04:44:13;12.75;;;7.15;;
39502;SDS011;26970;49.900;10.774;2024-03-07T04:46:39;14.35;;;7.78;;
39502;SDS011;26970;49.900;10.774;2024-03-07T04:49:07;15.25;;;7.95;;
39502;SDS011;26970;49.900;10.774;2024-03-07T04:51:33;14.82;;;7.75;;
39502;SDS011;26970;49.900;10.774;2024-03-07T04:53:58;14.95;;;7.88;;
39502;SDS011;26970;49.900;10.774;2024-03-07T04:56:24;18.23;;;8.15;;
39502;SDS011;26970;49.900;10.774;2024-03-07T04:58:49;19.70;;;7.82;;
39502;SDS011;26970;49.900;10.774;2024-03-07T05:01:15;15.85;;;7.38;;
39502;SDS011;26970;49.900;10.774;2024-03-07T05:03:40;16.40;;;7.95;;
39502;SDS011;26970;49.900;10.774;2024-03-07T05:06:07;16.05;;;7.10;;
39502;SDS011;26970;49.900;10.774;2024-03-07T05:08:33;15.30;;;6.97;;
39502;SDS011;26970;49.900;10.774;2024-03-07T05:10:58;15.63;;;6.60;;
39502;SDS011;26970;49.900;10.774;2024-03-07T05:13:24;14.63;;;7.45;;
39502;SDS011;26970;49.900;10.774;2024-03-07T05:15:49;16.13;;;7.13;;
39502;SDS011;26970;49.900;10.774;2024-03-07T05:18:15;13.93;;;7.15;;
39502;SDS011;26970;49.900;10.774;2024-03-07T05:20:42;18.13;;;8.18;;
39502;SDS011;26970;49.900;10.774;2024-03-07T05:23:07;15.63;;;7.57;;
39502;SDS011;26970;49.900;10.774;2024-03-07T05:25:35;14.23;;;6.97;;
39502;SDS011;26970;49.900;10.774;2024-03-07T05:28:01;14.50;;;6.40;;
39502;SDS011;26970;49.900;10.774;2024-03-07T05:30:27;13.73;;;7.25;;
39502;SDS011;26970;49.900;10.774;2024-03-07T05:32:53;23.00;;;9.18;;
39502;SDS011;26970;49.900;10.774;2024-03-07T05:35:19;14.75;;;6.80;;
39502;SDS011;26970;49.900;10.774;2024-03-07T05:37:45;14.77;;;7.60;;
39502;SDS011;26970;49.900;10.774;2024-03-07T05:40:12;17.95;;;8.13;;
39502;SDS011;26970;49.900;10.774;2024-03-07T05:42:38;21.25;;;8.75;;
39502;SDS011;26970;49.900;10.774;2024-03-07T05:45:03;20.40;;;9.05;;
39502;SDS011;26970;49.900;10.774;2024-03-07T05:47:32;16.20;;;8.98;;
39502;SDS011;26970;49.900;10.774;2024-03-07T05:49:58;16.38;;;8.00;;
39502;SDS011;26970;49.900;10.774;2024-03-07T05:52:24;24.88;;;9.65;;
39502;SDS011;26970;49.900;10.774;2024-03-07T05:54:50;15.43;;;8.20;;
39502;SDS011;26970;49.900;10.774;2024-03-07T05:57:15;16.77;;;8.00;;
39502;SDS011;26970;49.900;10.774;2024-03-07T05:59:41;16.88;;;8.20;;
39502;SDS011;26970;49.900;10.774;2024-03-07T06:02:06;18.42;;;8.80;;
39502;SDS011;26970;49.900;10.774;2024-03-07T06:04:32;21.50;;;8.68;;
39502;SDS011;26970;49.900;10.774;2024-03-07T06:06:59;22.13;;;9.57;;
39502;SDS011;26970;49.900;10.774;2024-03-07T06:09:24;17.35;;;9.15;;
39502;SDS011;26970;49.900;10.774;2024-03-07T06:11:51;16.83;;;7.95;;
39502;SDS011;26970;49.900;10.774;2024-03-07T06:14:17;15.57;;;7.68;;
39502;SDS011;26970;49.900;10.774;2024-03-07T06:16:43;15.00;;;8.05;;
39502;SDS011;26970;49.900;10.774;2024-03-07T06:19:08;14.30;;;7.72;;
39502;SDS011;26970;49.900;10.774;2024-03-07T06:21:37;15.23;;;8.40;;
39502;SDS011;26970;49.900;10.774;2024-03-07T06:24:05;20.08;;;9.48;;
39502;SDS011;26970;49.900;10.774;2024-03-07T06:26:33;21.70;;;9.50;;
39502;SDS011;26970;49.900;10.774;2024-03-07T06:29:17;18.85;;;9.80;;
39502;SDS011;26970;49.900;10.774;2024-03-07T06:31:43;16.88;;;9.80;;
39502;SDS011;26970;49.900;10.774;2024-03-07T06:34:11;20.98;;;10.52;;
39502;SDS011;26970;49.900;10.774;2024-03-07T06:36:38;19.02;;;8.70;;
39502;SDS011;26970;49.900;10.774;2024-03-07T06:39:04;15.77;;;8.43;;
39502;SDS011;26970;49.900;10.774;2024-03-07T06:41:35;17.75;;;9.57;;
39502;SDS011;26970;49.900;10.774;2024-03-07T06:44:01;16.40;;;8.73;;
39502;SDS011;26970;49.900;10.774;2024-03-07T06:46:27;22.42;;;9.80;;
39502;SDS011;26970;49.900;10.774;2024-03-07T06:48:53;20.77;;;9.75;;
39502;SDS011;26970;49.900;10.774;2024-03-07T06:51:18;18.55;;;9.18;;
39502;SDS011;26970;49.900;10.774;2024-03-07T06:53:44;19.25;;;9.73;;
39502;SDS011;26970;49.900;10.774;2024-03-07T06:56:14;24.65;;;10.52;;
39502;SDS011;26970;49.900;10.774;2024-03-07T06:58:41;22.08;;;11.38;;
39502;SDS011;26970;49.900;10.774;2024-03-07T07:01:07;23.15;;;10.93;;
39502;SDS011;26970;49.900;10.774;2024-03-07T07:03:35;21.48;;;9.27;;
39502;SDS011;26970;49.900;10.774;2024-03-07T07:06:02;20.10;;;11.10;;
39502;SDS011;26970;49.900;10.774;2024-03-07T07:08:31;20.45;;;10.80;;
39502;SDS011;26970;49.900;10.774;2024-03-07T07:10:57;20.33;;;9.85;;
39502;SDS011;26970;49.900;10.774;2024-03-07T07:13:23;22.63;;;11.85;;
39502;SDS011;26970;49.900;10.774;2024-03-07T07:15:48;25.63;;;12.68;;
39502;SDS011;26970;49.900;10.774;2024-03-07T07:18:14;31.33;;;13.05;;
39502;SDS011;26970;49.900;10.774;2024-03-07T07:20:40;26.33;;;12.45;;
39502;SDS011;26970;49.900;10.774;2024-03-07T07:23:06;35.88;;;15.45;;
39502;SDS011;26970;49.900;10.774;2024-03-07T07:25:31;26.90;;;14.27;;
39502;SDS011;26970;49.900;10.774;2024-03-07T07:27:57;37.58;;;16.20;;
39502;SDS011;26970;49.900;10.774;2024-03-07T07:30:23;22.15;;;12.55;;
39502;SDS011;26970;49.900;10.774;2024-03-07T07:32:50;25.83;;;11.77;;
39502;SDS011;26970;49.900;10.774;2024-03-07T07:35:16;28.40;;;13.63;;
39502;SDS011;26970;49.900;10.774;2024-03-07T07:37:43;20.05;;;9.38;;
39502;SDS011;26970;49.900;10.774;2024-03-07T07:40:11;23.30;;;11.15;;
39502;SDS011;26970;49.900;10.774;2024-03-07T07:42:39;22.00;;;10.85;;
39502;SDS011;26970;49.900;10.774;2024-03-07T07:45:07;23.08;;;10.38;;
39502;SDS011;26970;49.900;10.774;2024-03-07T07:47:45;22.10;;;10.05;;
39502;SDS011;26970;49.900;10.774;2024-03-07T07:50:17;22.50;;;10.75;;
39502;SDS011;26970;49.900;10.774;2024-03-07T07:52:44;21.23;;;10.30;;
39502;SDS011;26970;49.900;10.774;2024-03-07T07:55:12;22.27;;;11.32;;
39502;SDS011;26970;49.900;10.774;2024-03-07T07:57:42;19.92;;;10.25;;
39502;SDS011;26970;49.900;10.774;2024-03-07T08:00:10;22.60;;;8.57;;
39502;SDS011;26970;49.900;10.774;2024-03-07T08:02:37;22.85;;;11.35;;
39502;SDS011;26970;49.900;10.774;2024-03-07T08:05:03;25.58;;;10.70;;
39502;SDS011;26970;49.900;10.774;2024-03-07T08:07:30;19.95;;;10.70;;
39502;SDS011;26970;49.900;10.774;2024-03-07T08:09:56;28.40;;;11.45;;
39502;SDS011;26970;49.900;10.774;2024-03-07T08:12:21;23.27;;;11.57;;
39502;SDS011;26970;49.900;10.774;2024-03-07T08:14:47;25.73;;;12.20;;
39502;SDS011;26970;49.900;10.774;2024-03-07T08:17:13;23.05;;;10.18;;
39502;SDS011;26970;49.900;10.774;2024-03-07T08:19:39;21.40;;;11.35;;
39502;SDS011;26970;49.900;10.774;2024-03-07T08:22:05;20.38;;;9.07;;
39502;SDS011;26970;49.900;10.774;2024-03-07T08:24:31;24.20;;;11.88;;
39502;SDS011;26970;49.900;10.774;2024-03-07T08:26:57;23.88;;;11.88;;
39502;SDS011;26970;49.900;10.774;2024-03-07T08:29:22;21.20;;;10.63;;
39502;SDS011;26970;49.900;10.774;2024-03-07T08:31:49;25.20;;;11.23;;
39502;SDS011;26970;49.900;10.774;2024-03-07T08:34:14;21.67;;;10.80;;
39502;SDS011;26970;49.900;10.774;2024-03-07T08:36:40;22.25;;;11.68;;
39502;SDS011;26970;49.900;10.774;2024-03-07T08:39:05;23.55;;;11.82;;
39502;SDS011;26970;49.900;10.774;2024-03-07T08:41:35;24.20;;;11.18;;
39502;SDS011;26970;49.900;10.774;2024-03-07T08:44:06;23.67;;;11.25;;
39502;SDS011;26970;49.900;10.774;2024-03-07T08:46:33;24.23;;;10.40;;
39502;SDS011;26970;49.900;10.774;2024-03-07T08:49:01;23.52;;;11.02;;
39502;SDS011;26970;49.900;10.774;2024-03-07T08:51:27;22.05;;;10.35;;
39502;SDS011;26970;49.900;10.774;2024-03-07T08:53:52;18.10;;;9.40;;
39502;SDS011;26970;49.900;10.774;2024-03-07T08:56:18;19.48;;;9.88;;
39502;SDS011;26970;49.900;10.774;2024-03-07T08:58:43;19.13;;;9.20;;
39502;SDS011;26970;49.900;10.774;2024-03-07T09:01:09;18.27;;;9.73;;
39502;SDS011;26970;49.900;10.774;2024-03-07T09:03:35;17.13;;;7.65;;
39502;SDS011;26970;49.900;10.774;2024-03-07T09:06:01;17.63;;;7.68;;
39502;SDS011;26970;49.900;10.774;2024-03-07T09:08:28;16.95;;;7.50;;
39502;SDS011;26970;49.900;10.774;2024-03-07T09:10:54;23.02;;;10.07;;
39502;SDS011;26970;49.900;10.774;2024-03-07T09:13:20;16.23;;;8.75;;
39502;SDS011;26970;49.900;10.774;2024-03-07T09:15:46;14.30;;;7.97;;
39502;SDS011;26970;49.900;10.774;2024-03-07T09:18:12;17.65;;;9.23;;
39502;SDS011;26970;49.900;10.774;2024-03-07T09:20:37;18.23;;;9.02;;
39502;SDS011;26970;49.900;10.774;2024-03-07T09:23:03;16.52;;;7.82;;
39502;SDS011;26970;49.900;10.774;2024-03-07T09:25:29;16.88;;;7.55;;
39502;SDS011;26970;49.900;10.774;2024-03-07T09:27:58;15.95;;;7.13;;
39502;SDS011;26970;49.900;10.774;2024-03-07T09:30:25;15.75;;;7.88;;
39502;SDS011;26970;49.900;10.774;2024-03-07T09:32:56;12.85;;;7.03;;
39502;SDS011;26970;49.900;10.774;2024-03-07T09:35:21;16.50;;;8.30;;
39502;SDS011;26970;49.900;10.774;2024-03-07T09:37:47;22.20;;;10.48;;
39502;SDS011;26970;49.900;10.774;2024-03-07T09:40:13;18.48;;;8.68;;
39502;SDS011;26970;49.900;10.774;2024-03-07T09:42:45;17.45;;;8.38;;
39502;SDS011;26970;49.900;10.774;2024-03-07T09:45:16;20.00;;;9.43;;
39502;SDS011;26970;49.900;10.774;2024-03-07T09:47:44;15.10;;;7.35;;
39502;SDS011;26970;49.900;10.774;2024-03-07T09:50:12;15.77;;;7.63;;
39502;SDS011;26970;49.900;10.774;2024-03-07T09:52:38;16.92;;;9.02;;
39502;SDS011;26970;49.900;10.774;2024-03-07T09:55:04;17.25;;;7.90;;
39502;SDS011;26970;49.900;10.774;2024-03-07T09:57:31;16.48;;;6.72;;
39502;SDS011;26970;49.900;10.774;2024-03-07T10:00:00;14.55;;;6.75;;
39502;SDS011;26970;49.900;10.774;2024-03-07T10:02:27;17.27;;;8.40;;
39502;SDS011;26970;49.900;10.774;2024-03-07T10:04:56;21.05;;;9.32;;
39502;SDS011;26970;49.900;10.774;2024-03-07T10:07:23;16.40;;;7.60;;
39502;SDS011;26970;49.900;10.774;2024-03-07T10:09:49;13.57;;;6.93;;
39502;SDS011;26970;49.900;10.774;2024-03-07T10:12:17;14.93;;;6.95;;
39502;SDS011;26970;49.900;10.774;2024-03-07T10:14:50;10.18;;;5.75;;
39502;SDS011;26970;49.900;10.774;2024-03-07T10:17:19;11.52;;;6.10;;
39502;SDS011;26970;49.900;10.774;2024-03-07T10:19:48;11.85;;;5.22;;
39502;SDS011;26970;49.900;10.774;2024-03-07T10:22:18;10.85;;;5.95;;
39502;SDS011;26970;49.900;10.774;2024-03-07T10:24:51;14.07;;;7.18;;
39502;SDS011;26970;49.900;10.774;2024-03-07T10:27:19;10.07;;;5.32;;
39502;SDS011;26970;49.900;10.774;2024-03-07T10:29:46;13.40;;;6.80;;
39502;SDS011;26970;49.900;10.774;2024-03-07T10:32:13;19.65;;;7.82;;
39502;SDS011;26970;49.900;10.774;2024-03-07T10:34:38;11.75;;;5.57;;
39502;SDS011;26970;49.900;10.774;2024-03-07T10:37:04;11.93;;;5.70;;
39502;SDS011;26970;49.900;10.774;2024-03-07T10:39:32;12.77;;;6.78;;
39502;SDS011;26970;49.900;10.774;2024-03-07T10:41:57;13.05;;;6.10;;
39502;SDS011;26970;49.900;10.774;2024-03-07T10:44:30;14.20;;;7.45;;
39502;SDS011;26970;49.900;10.774;2024-03-07T10:46:57;15.90;;;7.10;;
39502;SDS011;26970;49.900;10.774;2024-03-07T10:49:25;13.98;;;6.45;;
39502;SDS011;26970;49.900;10.774;2024-03-07T10:52:03;14.20;;;6.93;;
39502;SDS011;26970;49.900;10.774;2024-03-07T11:00:06;8.95;;;5.22;;
39502;SDS011;26970;49.900;10.774;2024-03-07T11:02:54;13.57;;;5.82;;
39502;SDS011;26970;49.900;10.774;2024-03-07T11:05:21;12.18;;;5.82;;
39502;SDS011;26970;49.900;10.774;2024-03-07T11:07:50;12.40;;;6.68;;
39502;SDS011;26970;49.900;10.774;2024-03-07T11:10:17;11.98;;;5.78;;
39502;SDS011;26970;49.900;10.774;2024-03-07T11:12:44;15.65;;;7.43;;
39502;SDS011;26970;49.900;10.774;2024-03-07T11:15:10;13.77;;;6.97;;
39502;SDS011;26970;49.900;10.774;2024-03-07T11:17:44;15.55;;;5.95;;
39502;SDS011;26970;49.900;10.774;2024-03-07T11:23:00;11.48;;;6.00;;
39502;SDS011;26970;49.900;10.774;2024-03-07T11:25:27;10.77;;;5.47;;
39502;SDS011;26970;49.900;10.774;2024-03-07T11:27:55;13.40;;;6.38;;
39502;SDS011;26970;49.900;10.774;2024-03-07T11:30:21;11.18;;;5.85;;
39502;SDS011;26970;49.900;10.774;2024-03-07T11:32:47;12.30;;;6.05;;
39502;SDS011;26970;49.900;10.774;2024-03-07T11:37:56;11.35;;;5.22;;
39502;SDS011;26970;49.900;10.774;2024-03-07T11:42:49;13.63;;;6.68;;
39502;SDS011;26970;49.900;10.774;2024-03-07T11:45:17;12.13;;;6.05;;
39502;SDS011;26970;49.900;10.774;2024-03-07T11:47:50;11.50;;;5.90;;
39502;SDS011;26970;49.900;10.774;2024-03-07T11:50:25;11.68;;;5.38;;
39502;SDS011;26970;49.900;10.774;2024-03-07T11:52:52;11.40;;;5.05;;
39502;SDS011;26970;49.900;10.774;2024-03-07T11:55:19;9.27;;;5.63;;
39502;SDS011;26970;49.900;10.774;2024-03-07T11:57:46;12.27;;;5.85;;
39502;SDS011;26970;49.900;10.774;2024-03-07T12:00:12;13.07;;;6.15;;
39502;SDS011;26970;49.900;10.774;2024-03-07T12:02:40;13.02;;;4.72;;
39502;SDS011;26970;49.900;10.774;2024-03-07T12:05:08;13.77;;;5.82;;
39502;SDS011;26970;49.900;10.774;2024-03-07T12:07:34;12.38;;;6.50;;
39502;SDS011;26970;49.900;10.774;2024-03-07T12:10:00;12.75;;;6.05;;
39502;SDS011;26970;49.900;10.774;2024-03-07T12:12:29;12.00;;;5.80;;
39502;SDS011;26970;49.900;10.774;2024-03-07T12:14:55;12.00;;;6.45;;
39502;SDS011;26970;49.900;10.774;2024-03-07T12:17:21;11.35;;;6.43;;
39502;SDS011;26970;49.900;10.774;2024-03-07T12:19:47;14.68;;;6.20;;
39502;SDS011;26970;49.900;10.774;2024-03-07T12:22:18;12.38;;;6.68;;
39502;SDS011;26970;49.900;10.774;2024-03-07T12:25:04;13.38;;;6.25;;
39502;SDS011;26970;49.900;10.774;2024-03-07T12:27:33;9.38;;;5.72;;
39502;SDS011;26970;49.900;10.774;2024-03-07T12:29:59;12.20;;;5.88;;
39502;SDS011;26970;49.900;10.774;2024-03-07T12:32:32;16.35;;;6.53;;
39502;SDS011;26970;49.900;10.774;2024-03-07T12:34:58;11.50;;;5.25;;
39502;SDS011;26970;49.900;10.774;2024-03-07T12:37:23;13.98;;;7.03;;
39502;SDS011;26970;49.900;10.774;2024-03-07T12:39:52;11.13;;;5.72;;
39502;SDS011;26970;49.900;10.774;2024-03-07T12:42:26;14.63;;;7.97;;
39502;SDS011;26970;49.900;10.774;2024-03-07T12:44:54;14.90;;;7.35;;
39502;SDS011;26970;49.900;10.774;2024-03-07T12:47:19;14.45;;;7.03;;
39502;SDS011;26970;49.900;10.774;2024-03-07T12:49:45;13.25;;;6.53;;
39502;SDS011;26970;49.900;10.774;2024-03-07T12:52:11;16.30;;;7.57;;
39502;SDS011;26970;49.900;10.774;2024-03-07T12:54:40;16.52;;;8.25;;
39502;SDS011;26970;49.900;10.774;2024-03-07T12:57:06;17.13;;;8.82;;
39502;SDS011;26970;49.900;10.774;2024-03-07T12:59:33;14.80;;;7.10;;
39502;SDS011;26970;49.900;10.774;2024-03-07T13:02:06;16.85;;;8.98;;
39502;SDS011;26970;49.900;10.774;2024-03-07T13:04:35;17.60;;;8.10;;
39502;SDS011;26970;49.900;10.774;2024-03-07T13:07:03;16.70;;;8.52;;
39502;SDS011;26970;49.900;10.774;2024-03-07T13:09:33;14.68;;;8.13;;
39502;SDS011;26970;49.900;10.774;2024-03-07T13:11:59;17.38;;;7.95;;
39502;SDS011;26970;49.900;10.774;2024-03-07T13:14:26;16.73;;;8.23;;
39502;SDS011;26970;49.900;10.774;2024-03-07T13:16:57;14.88;;;7.35;;
39502;SDS011;26970;49.900;10.774;2024-03-07T13:19:32;17.80;;;8.05;;
39502;SDS011;26970;49.900;10.774;2024-03-07T13:21:58;15.82;;;6.72;;
39502;SDS011;26970;49.900;10.774;2024-03-07T13:24:24;14.18;;;6.82;;
39502;SDS011;26970;49.900;10.774;2024-03-07T13:26:51;15.55;;;8.02;;
39502;SDS011;26970;49.900;10.774;2024-03-07T13:29:17;14.70;;;7.10;;
39502;SDS011;26970;49.900;10.774;2024-03-07T13:31:49;15.38;;;7.38;;
39502;SDS011;26970;49.900;10.774;2024-03-07T13:34:15;16.23;;;7.80;;
39502;SDS011;26970;49.900;10.774;2024-03-07T13:36:40;15.93;;;7.18;;
39502;SDS011;26970;49.900;10.774;2024-03-07T13:39:07;16.80;;;7.60;;
39502;SDS011;26970;49.900;10.774;2024-03-07T13:41:37;14.98;;;7.60;;
39502;SDS011;26970;49.900;10.774;2024-03-07T13:44:03;18.73;;;7.22;;
39502;SDS011;26970;49.900;10.774;2024-03-07T13:46:32;18.27;;;7.60;;
39502;SDS011;26970;49.900;10.774;2024-03-07T13:49:02;16.92;;;7.55;;
39502;SDS011;26970;49.900;10.774;2024-03-07T13:51:41;15.50;;;7.05;;
39502;SDS011;26970;49.900;10.774;2024-03-07T13:54:24;19.17;;;8.43;;
39502;SDS011;26970;49.900;10.774;2024-03-07T13:59:33;17.00;;;7.97;;
39502;SDS011;26970;49.900;10.774;2024-03-07T14:02:37;20.92;;;8.60;;
39502;SDS011;26970;49.900;10.774;2024-03-07T14:10:35;13.93;;;7.75;;
39502;SDS011;26970;49.900;10.774;2024-03-07T14:24:16;15.68;;;6.45;;
39502;SDS011;26970;49.900;10.774;2024-03-07T14:29:47;14.18;;;7.35;;
39502;SDS011;26970;49.900;10.774;2024-03-07T14:32:17;16.05;;;7.07;;
39502;SDS011;26970;49.900;10.774;2024-03-07T14:37:25;14.02;;;7.40;;
39502;SDS011;26970;49.900;10.774;2024-03-07T14:40:10;15.50;;;7.77;;
39502;SDS011;26970;49.900;10.774;2024-03-07T14:42:41;18.77;;;8.32;;
39502;SDS011;26970;49.900;10.774;2024-03-07T14:45:11;19.98;;;8.73;;
39502;SDS011;26970;49.900;10.774;2024-03-07T14:47:41;18.20;;;7.55;;
39502;SDS011;26970;49.900;10.774;2024-03-07T14:50:07;16.73;;;8.45;;
39502;SDS011;26970;49.900;10.774;2024-03-07T14:52:37;18.73;;;7.78;;
39502;SDS011;26970;49.900;10.774;2024-03-07T14:55:07;16.27;;;7.93;;
39502;SDS011;26970;49.900;10.774;2024-03-07T14:57:33;16.73;;;8.40;;